Marcel — ONDP — position and weather

sailwx.info

Track history (hours):
 
Tides and Currents Weather Stations Pressure Air Temp Water Temp Dewpoint Dewpoint Depression Visibility Wind Speed Wind Dir Waves Ship Positions

Marcel

Last reported at 2017-Jan-23 05:14 UTC. Time now 2017-Jan-23 06:36 UTC.
Position N 50°27' W 000°20'.

Length 88 m; draft 5.6 m.

Type: Cargo ship. MMSI: 205439000.

Date/timePositionNaut miles runAvg speedWind from/ knotsBaromVisibWave heightAir tempDewpointWater temp
2017-Jan-23 05:14N 50°27' W 000°20'6 8.9
2017-Jan-23 04:31N 50°28' W 000°10'9 9.1
2017-Jan-23 03:33N 50°31' E 000°03'5310.0
2017-Jan-22 22:16N 50°58' E 001°15'7 9.4
2017-Jan-22 21:33N 51°02' E 001°23'9 8.9
2017-Jan-22 20:33N 51°08' E 001°34'9 8.9
2017-Jan-22 19:34N 51°14' E 001°45'10 9.6
2017-Jan-22 18:33N 51°22' E 001°52'221 8.9
2017-Jan-21 17:33N 53°29' E 006°50'9 9.4
2017-Jan-21 16:33N 53°22' E 006°59'7 7.3
2017-Jan-21 15:33N 53°20' E 007°11'1 0.6
2017-Jan-21 14:32N 53°20' E 007°12'0 0.0
2017-Jan-21 13:29N 53°20' E 007°12'0 0.0
2017-Jan-21 12:31N 53°20' E 007°12'0 0.4
2017-Jan-21 11:33N 53°20' E 007°11'6 5.6
2017-Jan-21 10:34N 53°19' E 007°02'8 7.9
2017-Jan-21 09:34N 53°26' E 006°55'17 7.5
2017-Jan-21 07:15N 53°37' E 006°32'79 3.7
2017-Jan-20 10:06N 53°07' E 004°29'711.4
2017-Jan-20 09:28N 53°01' E 004°23'1111.2
2017-Jan-20 08:28N 52°51' E 004°14'1010.7
2017-Jan-20 07:33N 52°43' E 004°06'32 9.7
2017-Jan-20 04:13N 52°17' E 003°34'7 9.1
2017-Jan-20 03:28N 52°10' E 003°29'10 8.8
2017-Jan-20 02:21N 52°01' E 003°24'7 8.8
2017-Jan-20 01:33N 51°54' E 003°22'8 8.4
2017-Jan-20 00:33N 51°47' E 003°16'8 8.2
2017-Jan-19 23:33N 51°39' E 003°20'10 9.8
2017-Jan-19 22:33N 51°30' E 003°28'9 9.5
2017-Jan-19 21:33N 51°26' E 003°41'9 8.8
2017-Jan-19 20:34N 51°25' E 003°55'8 7.9
2017-Jan-19 19:33N 51°22' E 004°07'6 6.3
2017-Jan-19 18:33N 51°20' E 004°16'6 5.9
2017-Jan-19 17:33N 51°15' E 004°21'4 4.0
2017-Jan-19 16:33N 51°11' E 004°20'4 3.2
2017-Jan-19 15:22N 51°07' E 004°18'2 2.5
2017-Jan-19 14:32N 51°05' E 004°20'1 0.1
2017-Jan-18 22:21N 51°04' E 004°22'0 0.0
2017-Jan-18 13:25N 51°04' E 004°22'3 3.0
2017-Jan-18 12:33N 51°06' E 004°19'3 3.1
2017-Jan-18 11:32N 51°09' E 004°20'5 5.5
2017-Jan-18 10:33N 51°14' E 004°22'6 6.0
2017-Jan-18 09:33N 51°19' E 004°16'6 6.2
2017-Jan-18 08:33N 51°22' E 004°08'8 7.9
2017-Jan-18 07:33N 51°27' E 003°57'7 7.1
2017-Jan-18 06:33N 51°23' E 003°48'9 9.1
2017-Jan-18 05:32N 51°26' E 003°34'37 7.4
2017-Jan-18 00:28N 52°03' E 003°43'1011.1
2017-Jan-17 23:33N 52°01' E 003°59'1312.6
2017-Jan-17 22:33N 51°54' E 004°17'2 1.9
2017-Jan-17 21:31N 51°54' E 004°20'0 0.0
2017-Jan-17 20:31N 51°54' E 004°20'0 0.0
2017-Jan-17 19:26N 51°54' E 004°20'0 0.0
2017-Jan-17 18:19N 51°54' E 004°20'0 0.0
2017-Jan-17 17:32N 51°54' E 004°20'0 0.0
2017-Jan-17 16:30N 51°54' E 004°20'0 0.0
2017-Jan-17 15:32N 51°54' E 004°20'0 0.0
2017-Jan-17 14:27N 51°54' E 004°20'0 0.0
2017-Jan-17 13:33N 51°54' E 004°20'0 0.0
2017-Jan-17 12:20N 51°54' E 004°20'0 0.0
2017-Jan-17 11:33N 51°54' E 004°20'0 0.0
2017-Jan-17 10:29N 51°54' E 004°20'0 0.0
2017-Jan-17 09:33N 51°54' E 004°20'0 0.0
2017-Jan-17 08:30N 51°54' E 004°20'0 0.0
2017-Jan-17 07:26N 51°54' E 004°20'0 0.0
2017-Jan-17 06:30N 51°54' E 004°20'0 0.0
2017-Jan-17 05:32N 51°54' E 004°20'0 0.0
2017-Jan-17 04:29N 51°54' E 004°20'0 0.0
2017-Jan-17 03:26N 51°54' E 004°20'0 0.0
2017-Jan-17 02:28N 51°54' E 004°20'0 0.0
2017-Jan-17 01:31N 51°54' E 004°20'0 0.0
2017-Jan-17 00:30N 51°54' E 004°20'0 0.0
2017-Jan-16 23:31N 51°54' E 004°20'0 0.0
2017-Jan-16 22:29N 51°54' E 004°20'0 0.0
2017-Jan-16 21:26N 51°54' E 004°20'0 0.0
2017-Jan-16 20:33N 51°54' E 004°20'0 0.0
2017-Jan-16 19:33N 51°54' E 004°20'0 0.0
2017-Jan-16 18:30N 51°54' E 004°20'0 0.0
2017-Jan-16 16:27N 51°54' E 004°20'0 0.0
2017-Jan-16 15:34N 51°54' E 004°20'0 0.0
2017-Jan-16 14:30N 51°54' E 004°20'0 0.0
2017-Jan-16 13:28N 51°54' E 004°20'0 0.0
2017-Jan-16 12:29N 51°54' E 004°20'0 0.0
2017-Jan-16 11:26N 51°54' E 004°20'0 0.0
2017-Jan-16 10:30N 51°54' E 004°20'0 0.0
2017-Jan-16 09:31N 51°54' E 004°20'0 0.0
2017-Jan-16 08:31N 51°54' E 004°20'0 0.0
2017-Jan-16 07:32N 51°54' E 004°20'0 0.0
2017-Jan-16 06:22N 51°54' E 004°20'0 0.0
2017-Jan-16 05:15N 51°54' E 004°20'0 0.0
2017-Jan-16 04:27N 51°54' E 004°20'0 0.0
2017-Jan-16 03:33N 51°54' E 004°20'0 0.0
2017-Jan-16 02:28N 51°54' E 004°20'0 0.0
2017-Jan-16 01:34N 51°54' E 004°20'0 0.0
2017-Jan-16 00:27N 51°54' E 004°20'0 0.0
2017-Jan-15 23:32N 51°54' E 004°20'0 0.0
2017-Jan-15 22:30N 51°54' E 004°20'0 0.0
2017-Jan-15 21:33N 51°54' E 004°20'0 0.0
2017-Jan-15 20:30N 51°54' E 004°20'0 0.0
2017-Jan-15 19:31N 51°54' E 004°20'0 0.0
2017-Jan-15 18:27N 51°54' E 004°20'0 0.0
2017-Jan-15 17:33N 51°54' E 004°20'0 0.0
2017-Jan-15 16:28N 51°54' E 004°20'0 0.0
2017-Jan-15 15:33N 51°54' E 004°20'0 0.0
2017-Jan-15 14:28N 51°54' E 004°20'0 0.0
2017-Jan-15 13:33N 51°54' E 004°20'0 0.0
2017-Jan-15 12:25N 51°54' E 004°20'0 0.0
2017-Jan-15 11:31N 51°54' E 004°20'0 0.0
2017-Jan-15 10:27N 51°54' E 004°20'0 0.0
2017-Jan-15 09:31N 51°54' E 004°20'0 0.0
2017-Jan-15 08:29N 51°54' E 004°20'0 0.0
2017-Jan-15 07:31N 51°54' E 004°20'0 0.0
2017-Jan-15 06:27N 51°54' E 004°20'0 0.0
2017-Jan-15 05:34N 51°54' E 004°20'0 0.0
2017-Jan-15 04:29N 51°54' E 004°20'0 0.0
2017-Jan-15 03:33N 51°54' E 004°20'0 0.0
2017-Jan-15 02:29N 51°54' E 004°20'0 0.0
2017-Jan-15 01:32N 51°54' E 004°20'0 0.0
2017-Jan-15 00:29N 51°54' E 004°20'0 0.0
2017-Jan-14 23:31N 51°54' E 004°20'0 0.0
2017-Jan-14 22:30N 51°54' E 004°20'0 0.0
2017-Jan-14 21:32N 51°54' E 004°20'0 0.0
2017-Jan-14 20:29N 51°54' E 004°20'0 0.0
2017-Jan-14 19:33N 51°54' E 004°20'0 0.0
2017-Jan-14 18:29N 51°54' E 004°20'0 0.0
2017-Jan-14 17:26N 51°54' E 004°20'0 0.0
2017-Jan-14 16:30N 51°54' E 004°20'0 0.0
2017-Jan-14 15:33N 51°54' E 004°20'0 0.0
2017-Jan-14 14:29N 51°54' E 004°20'0 0.0
2017-Jan-14 13:25N 51°54' E 004°20'0 0.0
2017-Jan-14 12:29N 51°54' E 004°20'0 0.0
2017-Jan-14 11:32N 51°54' E 004°20'0 0.0
2017-Jan-14 10:33N 51°54' E 004°20'5 5.4
2017-Jan-14 09:33N 51°56' E 004°12'7 7.0
2017-Jan-14 08:33N 51°60' E 004°02'66 7.3
2017-Jan-13 23:33N 51°34' E 002°24'4 4.4
2017-Jan-13 22:33N 51°31' E 002°19'3 3.4
2017-Jan-13 21:32N 51°28' E 002°16'3 3.1
2017-Jan-13 20:33N 51°26' E 002°14'3 2.5
2017-Jan-13 19:31N 51°23' E 002°12'3 3.0
2017-Jan-13 18:30N 51°21' E 002°10'5 3.8
2017-Jan-13 17:16N 51°16' E 002°06'4 4.8
2017-Jan-13 16:32N 51°14' E 002°03'6 5.9
2017-Jan-13 15:33N 51°10' E 001°55'  
Track history (hours):
 
Tides and Currents Weather Stations Pressure Air Temp Water Temp Dewpoint Dewpoint Depression Visibility Wind Speed Wind Dir Waves Ship Positions

Marcel

Last reported at 2017-Jan-23 05:14 UTC. Time now 2017-Jan-23 06:36 UTC.
Position N 50°27' W 000°20'.

Length 88 m; draft 5.6 m.

Type: Cargo ship. MMSI: 205439000.

Date/timePositionNaut miles runAvg speedWind from/ knotsBaromVisibWave heightAir tempDewpointWater temp
2017-Jan-23 05:14N 50°27' W 000°20'6 8.9
2017-Jan-23 04:31N 50°28' W 000°10'9 9.1
2017-Jan-23 03:33N 50°31' E 000°03'5310.0
2017-Jan-22 22:16N 50°58' E 001°15'7 9.4
2017-Jan-22 21:33N 51°02' E 001°23'9 8.9
2017-Jan-22 20:33N 51°08' E 001°34'9 8.9
2017-Jan-22 19:34N 51°14' E 001°45'10 9.6
2017-Jan-22 18:33N 51°22' E 001°52'221 8.9
2017-Jan-21 17:33N 53°29' E 006°50'9 9.4
2017-Jan-21 16:33N 53°22' E 006°59'7 7.3
2017-Jan-21 15:33N 53°20' E 007°11'1 0.6
2017-Jan-21 14:32N 53°20' E 007°12'0 0.0
2017-Jan-21 13:29N 53°20' E 007°12'0 0.0
2017-Jan-21 12:31N 53°20' E 007°12'0 0.4
2017-Jan-21 11:33N 53°20' E 007°11'6 5.6
2017-Jan-21 10:34N 53°19' E 007°02'8 7.9
2017-Jan-21 09:34N 53°26' E 006°55'17 7.5
2017-Jan-21 07:15N 53°37' E 006°32'79 3.7
2017-Jan-20 10:06N 53°07' E 004°29'711.4
2017-Jan-20 09:28N 53°01' E 004°23'1111.2
2017-Jan-20 08:28N 52°51' E 004°14'1010.7
2017-Jan-20 07:33N 52°43' E 004°06'32 9.7
2017-Jan-20 04:13N 52°17' E 003°34'7 9.1
2017-Jan-20 03:28N 52°10' E 003°29'10 8.8
2017-Jan-20 02:21N 52°01' E 003°24'7 8.8
2017-Jan-20 01:33N 51°54' E 003°22'8 8.4
2017-Jan-20 00:33N 51°47' E 003°16'8 8.2
2017-Jan-19 23:33N 51°39' E 003°20'10 9.8
2017-Jan-19 22:33N 51°30' E 003°28'9 9.5
2017-Jan-19 21:33N 51°26' E 003°41'9 8.8
2017-Jan-19 20:34N 51°25' E 003°55'8 7.9
2017-Jan-19 19:33N 51°22' E 004°07'6 6.3
2017-Jan-19 18:33N 51°20' E 004°16'6 5.9
2017-Jan-19 17:33N 51°15' E 004°21'4 4.0
2017-Jan-19 16:33N 51°11' E 004°20'4 3.2
2017-Jan-19 15:22N 51°07' E 004°18'2 2.5
2017-Jan-19 14:32N 51°05' E 004°20'1 0.1
2017-Jan-18 22:21N 51°04' E 004°22'0 0.0
2017-Jan-18 13:25N 51°04' E 004°22'3 3.0
2017-Jan-18 12:33N 51°06' E 004°19'3 3.1
2017-Jan-18 11:32N 51°09' E 004°20'5 5.5
2017-Jan-18 10:33N 51°14' E 004°22'6 6.0
2017-Jan-18 09:33N 51°19' E 004°16'6 6.2
2017-Jan-18 08:33N 51°22' E 004°08'8 7.9
2017-Jan-18 07:33N 51°27' E 003°57'7 7.1
2017-Jan-18 06:33N 51°23' E 003°48'9 9.1
2017-Jan-18 05:32N 51°26' E 003°34'37 7.4
2017-Jan-18 00:28N 52°03' E 003°43'1011.1
2017-Jan-17 23:33N 52°01' E 003°59'1312.6
2017-Jan-17 22:33N 51°54' E 004°17'2 1.9
2017-Jan-17 21:31N 51°54' E 004°20'0 0.0
2017-Jan-17 20:31N 51°54' E 004°20'0 0.0
2017-Jan-17 19:26N 51°54' E 004°20'0 0.0
2017-Jan-17 18:19N 51°54' E 004°20'0 0.0
2017-Jan-17 17:32N 51°54' E 004°20'0 0.0
2017-Jan-17 16:30N 51°54' E 004°20'0 0.0
2017-Jan-17 15:32N 51°54' E 004°20'0 0.0
2017-Jan-17 14:27N 51°54' E 004°20'0 0.0
2017-Jan-17 13:33N 51°54' E 004°20'0 0.0
2017-Jan-17 12:20N 51°54' E 004°20'0 0.0
2017-Jan-17 11:33N 51°54' E 004°20'0 0.0
2017-Jan-17 10:29N 51°54' E 004°20'0 0.0
2017-Jan-17 09:33N 51°54' E 004°20'0 0.0
2017-Jan-17 08:30N 51°54' E 004°20'0 0.0
2017-Jan-17 07:26N 51°54' E 004°20'0 0.0
2017-Jan-17 06:30N 51°54' E 004°20'0 0.0
2017-Jan-17 05:32N 51°54' E 004°20'0 0.0
2017-Jan-17 04:29N 51°54' E 004°20'0 0.0
2017-Jan-17 03:26N 51°54' E 004°20'0 0.0
2017-Jan-17 02:28N 51°54' E 004°20'0 0.0
2017-Jan-17 01:31N 51°54' E 004°20'0 0.0
2017-Jan-17 00:30N 51°54' E 004°20'0 0.0
2017-Jan-16 23:31N 51°54' E 004°20'0 0.0
2017-Jan-16 22:29N 51°54' E 004°20'0 0.0
2017-Jan-16 21:26N 51°54' E 004°20'0 0.0
2017-Jan-16 20:33N 51°54' E 004°20'0 0.0
2017-Jan-16 19:33N 51°54' E 004°20'0 0.0
2017-Jan-16 18:30N 51°54' E 004°20'0 0.0
2017-Jan-16 16:27N 51°54' E 004°20'0 0.0
2017-Jan-16 15:34N 51°54' E 004°20'0 0.0
2017-Jan-16 14:30N 51°54' E 004°20'0 0.0
2017-Jan-16 13:28N 51°54' E 004°20'0 0.0
2017-Jan-16 12:29N 51°54' E 004°20'0 0.0
2017-Jan-16 11:26N 51°54' E 004°20'0 0.0
2017-Jan-16 10:30N 51°54' E 004°20'0 0.0
2017-Jan-16 09:31N 51°54' E 004°20'0 0.0
2017-Jan-16 08:31N 51°54' E 004°20'0 0.0
2017-Jan-16 07:32N 51°54' E 004°20'0 0.0
2017-Jan-16 06:22N 51°54' E 004°20'0 0.0
2017-Jan-16 05:15N 51°54' E 004°20'0 0.0
2017-Jan-16 04:27N 51°54' E 004°20'0 0.0
2017-Jan-16 03:33N 51°54' E 004°20'0 0.0
2017-Jan-16 02:28N 51°54' E 004°20'0 0.0
2017-Jan-16 01:34N 51°54' E 004°20'0 0.0
2017-Jan-16 00:27N 51°54' E 004°20'0 0.0
2017-Jan-15 23:32N 51°54' E 004°20'0 0.0
2017-Jan-15 22:30N 51°54' E 004°20'0 0.0
2017-Jan-15 21:33N 51°54' E 004°20'0 0.0
2017-Jan-15 20:30N 51°54' E 004°20'0 0.0
2017-Jan-15 19:31N 51°54' E 004°20'0 0.0
2017-Jan-15 18:27N 51°54' E 004°20'0 0.0
2017-Jan-15 17:33N 51°54' E 004°20'0 0.0
2017-Jan-15 16:28N 51°54' E 004°20'0 0.0
2017-Jan-15 15:33N 51°54' E 004°20'0 0.0
2017-Jan-15 14:28N 51°54' E 004°20'0 0.0
2017-Jan-15 13:33N 51°54' E 004°20'0 0.0
2017-Jan-15 12:25N 51°54' E 004°20'0 0.0
2017-Jan-15 11:31N 51°54' E 004°20'0 0.0
2017-Jan-15 10:27N 51°54' E 004°20'0 0.0
2017-Jan-15 09:31N 51°54' E 004°20'0 0.0
2017-Jan-15 08:29N 51°54' E 004°20'0 0.0
2017-Jan-15 07:31N 51°54' E 004°20'0 0.0
2017-Jan-15 06:27N 51°54' E 004°20'0 0.0
2017-Jan-15 05:34N 51°54' E 004°20'0 0.0
2017-Jan-15 04:29N 51°54' E 004°20'0 0.0
2017-Jan-15 03:33N 51°54' E 004°20'0 0.0
2017-Jan-15 02:29N 51°54' E 004°20'0 0.0
2017-Jan-15 01:32N 51°54' E 004°20'0 0.0
2017-Jan-15 00:29N 51°54' E 004°20'0 0.0
2017-Jan-14 23:31N 51°54' E 004°20'0 0.0
2017-Jan-14 22:30N 51°54' E 004°20'0 0.0
2017-Jan-14 21:32N 51°54' E 004°20'0 0.0
2017-Jan-14 20:29N 51°54' E 004°20'0 0.0
2017-Jan-14 19:33N 51°54' E 004°20'0 0.0
2017-Jan-14 18:29N 51°54' E 004°20'0 0.0
2017-Jan-14 17:26N 51°54' E 004°20'0 0.0
2017-Jan-14 16:30N 51°54' E 004°20'0 0.0
2017-Jan-14 15:33N 51°54' E 004°20'0 0.0
2017-Jan-14 14:29N 51°54' E 004°20'0 0.0
2017-Jan-14 13:25N 51°54' E 004°20'0 0.0
2017-Jan-14 12:29N 51°54' E 004°20'0 0.0
2017-Jan-14 11:32N 51°54' E 004°20'0 0.0
2017-Jan-14 10:33N 51°54' E 004°20'5 5.4
2017-Jan-14 09:33N 51°56' E 004°12'7 7.0
2017-Jan-14 08:33N 51°60' E 004°02'66 7.3
2017-Jan-13 23:33N 51°34' E 002°24'4 4.4
2017-Jan-13 22:33N 51°31' E 002°19'3 3.4
2017-Jan-13 21:32N 51°28' E 002°16'3 3.1
2017-Jan-13 20:33N 51°26' E 002°14'3 2.5
2017-Jan-13 19:31N 51°23' E 002°12'3 3.0
2017-Jan-13 18:30N 51°21' E 002°10'5 3.8
2017-Jan-13 17:16N 51°16' E 002°06'4 4.8
2017-Jan-13 16:32N 51°14' E 002°03'6 5.9
2017-Jan-13 15:33N 51°10' E 001°55'  

Dump ship's entire track history